sensor_id;sensor_type;location;lat;lon;timestamp;P1;durP1;ratioP1;P2;durP2;ratioP2
48006;SDS011;33771;48.180;11.400;2023-12-28T00:02:02;5.10;;;3.00;;
48006;SDS011;33771;48.180;11.400;2023-12-28T00:04:27;4.60;;;2.83;;
48006;SDS011;33771;48.180;11.400;2023-12-28T00:06:53;4.80;;;2.80;;
48006;SDS011;33771;48.180;11.400;2023-12-28T00:09:18;7.20;;;3.20;;
48006;SDS011;33771;48.180;11.400;2023-12-28T00:11:44;5.20;;;3.00;;
48006;SDS011;33771;48.180;11.400;2023-12-28T00:14:09;5.10;;;3.30;;
48006;SDS011;33771;48.180;11.400;2023-12-28T00:16:35;5.63;;;3.13;;
48006;SDS011;33771;48.180;11.400;2023-12-28T00:19:02;5.40;;;3.03;;
48006;SDS011;33771;48.180;11.400;2023-12-28T00:21:28;4.97;;;2.57;;
48006;SDS011;33771;48.180;11.400;2023-12-28T00:23:54;6.30;;;2.87;;
48006;SDS011;33771;48.180;11.400;2023-12-28T00:26:20;5.40;;;2.67;;
48006;SDS011;33771;48.180;11.400;2023-12-28T00:28:46;5.53;;;2.80;;
48006;SDS011;33771;48.180;11.400;2023-12-28T00:31:12;4.63;;;2.70;;
48006;SDS011;33771;48.180;11.400;2023-12-28T00:33:38;5.07;;;3.10;;
48006;SDS011;33771;48.180;11.400;2023-12-28T00:36:03;5.57;;;2.90;;
48006;SDS011;33771;48.180;11.400;2023-12-28T00:38:29;5.03;;;3.03;;
48006;SDS011;33771;48.180;11.400;2023-12-28T00:40:54;5.70;;;2.80;;
48006;SDS011;33771;48.180;11.400;2023-12-28T00:43:20;4.73;;;2.93;;
48006;SDS011;33771;48.180;11.400;2023-12-28T00:45:45;4.47;;;2.50;;
48006;SDS011;33771;48.180;11.400;2023-12-28T00:48:11;5.90;;;3.10;;
48006;SDS011;33771;48.180;11.400;2023-12-28T00:50:36;5.17;;;3.00;;
48006;SDS011;33771;48.180;11.400;2023-12-28T00:53:02;6.10;;;2.63;;
48006;SDS011;33771;48.180;11.400;2023-12-28T00:55:28;4.03;;;2.70;;
48006;SDS011;33771;48.180;11.400;2023-12-28T00:57:53;6.00;;;2.80;;
48006;SDS011;33771;48.180;11.400;2023-12-28T01:00:19;4.90;;;2.70;;
48006;SDS011;33771;48.180;11.400;2023-12-28T01:02:44;3.33;;;2.30;;
48006;SDS011;33771;48.180;11.400;2023-12-28T01:05:12;4.90;;;2.53;;
48006;SDS011;33771;48.180;11.400;2023-12-28T01:07:38;3.80;;;2.20;;
48006;SDS011;33771;48.180;11.400;2023-12-28T01:10:04;5.77;;;3.00;;
48006;SDS011;33771;48.180;11.400;2023-12-28T01:12:29;5.30;;;2.40;;
48006;SDS011;33771;48.180;11.400;2023-12-28T01:14:55;4.00;;;2.30;;
48006;SDS011;33771;48.180;11.400;2023-12-28T01:17:21;4.27;;;2.47;;
48006;SDS011;33771;48.180;11.400;2023-12-28T01:19:46;4.90;;;2.40;;
48006;SDS011;33771;48.180;11.400;2023-12-28T01:22:12;5.00;;;2.57;;
48006;SDS011;33771;48.180;11.400;2023-12-28T01:24:37;4.87;;;2.30;;
48006;SDS011;33771;48.180;11.400;2023-12-28T01:27:03;6.70;;;2.50;;
48006;SDS011;33771;48.180;11.400;2023-12-28T01:29:28;4.63;;;2.00;;
48006;SDS011;33771;48.180;11.400;2023-12-28T01:31:54;4.53;;;2.50;;
48006;SDS011;33771;48.180;11.400;2023-12-28T01:34:19;3.90;;;2.20;;
48006;SDS011;33771;48.180;11.400;2023-12-28T01:36:45;3.93;;;2.20;;
48006;SDS011;33771;48.180;11.400;2023-12-28T01:39:10;5.30;;;2.50;;
48006;SDS011;33771;48.180;11.400;2023-12-28T01:41:36;5.00;;;2.73;;
48006;SDS011;33771;48.180;11.400;2023-12-28T01:44:02;3.47;;;2.13;;
48006;SDS011;33771;48.180;11.400;2023-12-28T01:46:27;5.20;;;2.57;;
48006;SDS011;33771;48.180;11.400;2023-12-28T01:48:53;4.03;;;2.50;;
48006;SDS011;33771;48.180;11.400;2023-12-28T01:51:20;8.10;;;2.63;;
48006;SDS011;33771;48.180;11.400;2023-12-28T01:53:47;4.27;;;2.60;;
48006;SDS011;33771;48.180;11.400;2023-12-28T01:56:14;5.10;;;2.40;;
48006;SDS011;33771;48.180;11.400;2023-12-28T01:58:40;4.43;;;2.60;;
48006;SDS011;33771;48.180;11.400;2023-12-28T02:01:09;5.00;;;2.30;;
48006;SDS011;33771;48.180;11.400;2023-12-28T02:03:35;3.83;;;2.27;;
48006;SDS011;33771;48.180;11.400;2023-12-28T02:06:01;6.00;;;2.63;;
48006;SDS011;33771;48.180;11.400;2023-12-28T02:08:28;4.67;;;2.63;;
48006;SDS011;33771;48.180;11.400;2023-12-28T02:10:54;5.20;;;2.17;;
48006;SDS011;33771;48.180;11.400;2023-12-28T02:13:22;6.17;;;2.57;;
48006;SDS011;33771;48.180;11.400;2023-12-28T02:15:51;4.57;;;2.40;;
48006;SDS011;33771;48.180;11.400;2023-12-28T02:18:29;6.03;;;3.03;;
48006;SDS011;33771;48.180;11.400;2023-12-28T02:21:03;19.50;;;8.03;;
48006;SDS011;33771;48.180;11.400;2023-12-28T02:23:32;14.07;;;5.80;;
48006;SDS011;33771;48.180;11.400;2023-12-28T02:25:58;8.20;;;3.23;;
48006;SDS011;33771;48.180;11.400;2023-12-28T02:28:23;6.50;;;3.23;;
48006;SDS011;33771;48.180;11.400;2023-12-28T02:30:49;4.90;;;3.00;;
48006;SDS011;33771;48.180;11.400;2023-12-28T02:33:34;4.47;;;2.50;;
48006;SDS011;33771;48.180;11.400;2023-12-28T02:36:07;4.10;;;2.50;;
48006;SDS011;33771;48.180;11.400;2023-12-28T02:38:36;4.90;;;2.67;;
48006;SDS011;33771;48.180;11.400;2023-12-28T02:41:03;4.43;;;2.50;;
48006;SDS011;33771;48.180;11.400;2023-12-28T02:43:29;4.13;;;2.67;;
48006;SDS011;33771;48.180;11.400;2023-12-28T02:45:55;4.23;;;2.47;;
48006;SDS011;33771;48.180;11.400;2023-12-28T02:48:20;4.00;;;2.10;;
48006;SDS011;33771;48.180;11.400;2023-12-28T02:50:46;7.40;;;2.53;;
48006;SDS011;33771;48.180;11.400;2023-12-28T02:53:12;6.67;;;2.73;;
48006;SDS011;33771;48.180;11.400;2023-12-28T02:55:38;4.37;;;2.53;;
48006;SDS011;33771;48.180;11.400;2023-12-28T02:58:03;4.00;;;2.20;;
48006;SDS011;33771;48.180;11.400;2023-12-28T03:00:29;5.10;;;2.70;;
48006;SDS011;33771;48.180;11.400;2023-12-28T03:02:54;6.23;;;2.70;;
48006;SDS011;33771;48.180;11.400;2023-12-28T03:05:20;5.97;;;2.67;;
48006;SDS011;33771;48.180;11.400;2023-12-28T03:07:46;5.30;;;2.83;;
48006;SDS011;33771;48.180;11.400;2023-12-28T03:10:11;5.00;;;2.73;;
48006;SDS011;33771;48.180;11.400;2023-12-28T03:12:37;3.93;;;2.40;;
48006;SDS011;33771;48.180;11.400;2023-12-28T03:15:03;3.73;;;2.40;;
48006;SDS011;33771;48.180;11.400;2023-12-28T03:17:29;3.60;;;2.40;;
48006;SDS011;33771;48.180;11.400;2023-12-28T03:19:55;6.13;;;2.60;;
48006;SDS011;33771;48.180;11.400;2023-12-28T03:22:21;5.03;;;2.33;;
48006;SDS011;33771;48.180;11.400;2023-12-28T03:24:47;3.10;;;2.03;;
48006;SDS011;33771;48.180;11.400;2023-12-28T03:27:13;8.13;;;2.57;;
48006;SDS011;33771;48.180;11.400;2023-12-28T03:29:40;3.30;;;2.27;;
48006;SDS011;33771;48.180;11.400;2023-12-28T03:32:06;7.23;;;2.43;;
48006;SDS011;33771;48.180;11.400;2023-12-28T03:34:31;3.17;;;2.10;;
48006;SDS011;33771;48.180;11.400;2023-12-28T03:36:58;3.23;;;1.87;;
48006;SDS011;33771;48.180;11.400;2023-12-28T03:39:23;2.40;;;1.60;;
48006;SDS011;33771;48.180;11.400;2023-12-28T03:41:49;3.73;;;1.97;;
48006;SDS011;33771;48.180;11.400;2023-12-28T03:44:15;3.67;;;1.97;;
48006;SDS011;33771;48.180;11.400;2023-12-28T03:46:40;2.90;;;1.73;;
48006;SDS011;33771;48.180;11.400;2023-12-28T03:49:06;5.00;;;1.90;;
48006;SDS011;33771;48.180;11.400;2023-12-28T03:51:31;3.20;;;1.67;;
48006;SDS011;33771;48.180;11.400;2023-12-28T03:53:57;5.03;;;2.00;;
48006;SDS011;33771;48.180;11.400;2023-12-28T03:56:23;2.00;;;1.20;;
48006;SDS011;33771;48.180;11.400;2023-12-28T03:58:50;3.17;;;1.40;;
48006;SDS011;33771;48.180;11.400;2023-12-28T04:01:20;1.77;;;1.10;;
48006;SDS011;33771;48.180;11.400;2023-12-28T04:03:46;2.30;;;1.30;;
48006;SDS011;33771;48.180;11.400;2023-12-28T04:06:13;1.80;;;1.10;;
48006;SDS011;33771;48.180;11.400;2023-12-28T04:08:39;2.07;;;1.40;;
48006;SDS011;33771;48.180;11.400;2023-12-28T04:11:06;2.20;;;1.50;;
48006;SDS011;33771;48.180;11.400;2023-12-28T04:13:32;1.93;;;1.20;;
48006;SDS011;33771;48.180;11.400;2023-12-28T04:15:57;2.00;;;1.20;;
48006;SDS011;33771;48.180;11.400;2023-12-28T04:18:23;2.23;;;1.40;;
48006;SDS011;33771;48.180;11.400;2023-12-28T04:20:49;3.23;;;1.20;;
48006;SDS011;33771;48.180;11.400;2023-12-28T04:23:14;1.80;;;1.30;;
48006;SDS011;33771;48.180;11.400;2023-12-28T04:25:40;3.03;;;1.30;;
48006;SDS011;33771;48.180;11.400;2023-12-28T04:28:06;2.43;;;1.50;;
48006;SDS011;33771;48.180;11.400;2023-12-28T04:30:32;2.10;;;1.37;;
48006;SDS011;33771;48.180;11.400;2023-12-28T04:32:58;1.70;;;1.30;;
48006;SDS011;33771;48.180;11.400;2023-12-28T04:35:23;3.53;;;1.50;;
48006;SDS011;33771;48.180;11.400;2023-12-28T04:37:49;2.60;;;1.40;;
48006;SDS011;33771;48.180;11.400;2023-12-28T04:40:14;2.73;;;1.40;;
48006;SDS011;33771;48.180;11.400;2023-12-28T04:42:40;1.73;;;1.43;;
48006;SDS011;33771;48.180;11.400;2023-12-28T04:45:06;3.27;;;1.67;;
48006;SDS011;33771;48.180;11.400;2023-12-28T04:47:32;3.83;;;1.60;;
48006;SDS011;33771;48.180;11.400;2023-12-28T04:49:57;2.17;;;1.70;;
48006;SDS011;33771;48.180;11.400;2023-12-28T04:52:23;3.60;;;1.70;;
48006;SDS011;33771;48.180;11.400;2023-12-28T04:54:49;2.50;;;1.73;;
48006;SDS011;33771;48.180;11.400;2023-12-28T04:57:14;2.93;;;1.63;;
48006;SDS011;33771;48.180;11.400;2023-12-28T04:59:40;4.90;;;2.17;;
48006;SDS011;33771;48.180;11.400;2023-12-28T05:02:06;4.03;;;2.30;;
48006;SDS011;33771;48.180;11.400;2023-12-28T05:04:32;4.57;;;2.10;;
48006;SDS011;33771;48.180;11.400;2023-12-28T05:06:57;2.33;;;1.43;;
48006;SDS011;33771;48.180;11.400;2023-12-28T05:09:23;3.50;;;1.60;;
48006;SDS011;33771;48.180;11.400;2023-12-28T05:11:48;4.37;;;2.40;;
48006;SDS011;33771;48.180;11.400;2023-12-28T05:14:14;7.10;;;3.80;;
48006;SDS011;33771;48.180;11.400;2023-12-28T05:16:39;5.20;;;2.50;;
48006;SDS011;33771;48.180;11.400;2023-12-28T05:19:05;3.77;;;2.13;;
48006;SDS011;33771;48.180;11.400;2023-12-28T05:21:31;5.53;;;1.90;;
48006;SDS011;33771;48.180;11.400;2023-12-28T05:23:56;7.10;;;1.70;;
48006;SDS011;33771;48.180;11.400;2023-12-28T05:26:22;2.43;;;1.80;;
48006;SDS011;33771;48.180;11.400;2023-12-28T05:28:49;3.90;;;1.70;;
48006;SDS011;33771;48.180;11.400;2023-12-28T05:31:14;4.70;;;1.50;;
48006;SDS011;33771;48.180;11.400;2023-12-28T05:33:43;3.73;;;1.87;;
48006;SDS011;33771;48.180;11.400;2023-12-28T05:36:08;4.90;;;2.00;;
48006;SDS011;33771;48.180;11.400;2023-12-28T05:38:34;2.83;;;1.70;;
48006;SDS011;33771;48.180;11.400;2023-12-28T05:40:59;2.40;;;1.50;;
48006;SDS011;33771;48.180;11.400;2023-12-28T05:43:25;2.73;;;1.50;;
48006;SDS011;33771;48.180;11.400;2023-12-28T05:45:50;3.50;;;1.50;;
48006;SDS011;33771;48.180;11.400;2023-12-28T05:48:16;2.67;;;1.63;;
48006;SDS011;33771;48.180;11.400;2023-12-28T05:50:41;3.27;;;1.40;;
48006;SDS011;33771;48.180;11.400;2023-12-28T05:53:07;2.10;;;1.40;;
48006;SDS011;33771;48.180;11.400;2023-12-28T05:55:38;2.23;;;1.40;;
48006;SDS011;33771;48.180;11.400;2023-12-28T05:58:05;3.50;;;1.40;;
48006;SDS011;33771;48.180;11.400;2023-12-28T06:00:30;4.57;;;1.50;;
48006;SDS011;33771;48.180;11.400;2023-12-28T06:02:56;2.30;;;1.30;;
48006;SDS011;33771;48.180;11.400;2023-12-28T06:05:21;2.63;;;1.40;;
48006;SDS011;33771;48.180;11.400;2023-12-28T06:07:47;6.37;;;1.67;;
48006;SDS011;33771;48.180;11.400;2023-12-28T06:10:12;3.83;;;1.50;;
48006;SDS011;33771;48.180;11.400;2023-12-28T06:12:38;3.87;;;1.60;;
48006;SDS011;33771;48.180;11.400;2023-12-28T06:15:03;2.27;;;1.30;;
48006;SDS011;33771;48.180;11.400;2023-12-28T06:17:29;2.63;;;1.53;;
48006;SDS011;33771;48.180;11.400;2023-12-28T06:19:55;4.37;;;1.60;;
48006;SDS011;33771;48.180;11.400;2023-12-28T06:22:20;1.90;;;1.37;;
48006;SDS011;33771;48.180;11.400;2023-12-28T06:24:46;3.20;;;1.50;;
48006;SDS011;33771;48.180;11.400;2023-12-28T06:27:11;5.37;;;1.60;;
48006;SDS011;33771;48.180;11.400;2023-12-28T06:29:37;5.57;;;1.43;;
48006;SDS011;33771;48.180;11.400;2023-12-28T06:32:02;3.60;;;1.80;;
48006;SDS011;33771;48.180;11.400;2023-12-28T06:34:28;4.43;;;2.03;;
48006;SDS011;33771;48.180;11.400;2023-12-28T06:36:54;4.07;;;2.10;;
48006;SDS011;33771;48.180;11.400;2023-12-28T06:39:19;5.73;;;2.43;;
48006;SDS011;33771;48.180;11.400;2023-12-28T06:41:48;6.90;;;2.47;;
48006;SDS011;33771;48.180;11.400;2023-12-28T06:44:14;5.07;;;2.70;;
48006;SDS011;33771;48.180;11.400;2023-12-28T06:46:40;5.43;;;2.30;;
48006;SDS011;33771;48.180;11.400;2023-12-28T06:49:05;5.83;;;2.17;;
48006;SDS011;33771;48.180;11.400;2023-12-28T06:51:31;3.90;;;2.10;;
48006;SDS011;33771;48.180;11.400;2023-12-28T06:53:57;5.30;;;2.53;;
48006;SDS011;33771;48.180;11.400;2023-12-28T06:56:24;4.10;;;1.97;;
48006;SDS011;33771;48.180;11.400;2023-12-28T06:58:49;5.10;;;2.00;;
48006;SDS011;33771;48.180;11.400;2023-12-28T07:01:15;3.90;;;1.60;;
48006;SDS011;33771;48.180;11.400;2023-12-28T07:03:41;6.83;;;1.77;;
48006;SDS011;33771;48.180;11.400;2023-12-28T07:06:07;3.20;;;1.60;;
48006;SDS011;33771;48.180;11.400;2023-12-28T07:08:33;3.47;;;1.60;;
48006;SDS011;33771;48.180;11.400;2023-12-28T07:10:59;3.53;;;1.53;;
48006;SDS011;33771;48.180;11.400;2023-12-28T07:13:24;3.30;;;1.80;;
48006;SDS011;33771;48.180;11.400;2023-12-28T07:15:50;3.07;;;1.57;;
48006;SDS011;33771;48.180;11.400;2023-12-28T07:18:16;4.83;;;1.50;;
48006;SDS011;33771;48.180;11.400;2023-12-28T07:20:41;3.33;;;1.60;;
48006;SDS011;33771;48.180;11.400;2023-12-28T07:23:07;4.57;;;1.60;;
48006;SDS011;33771;48.180;11.400;2023-12-28T07:25:34;4.07;;;1.80;;
48006;SDS011;33771;48.180;11.400;2023-12-28T07:27:59;6.67;;;2.10;;
48006;SDS011;33771;48.180;11.400;2023-12-28T07:30:25;4.00;;;2.00;;
48006;SDS011;33771;48.180;11.400;2023-12-28T07:32:50;6.37;;;2.07;;
48006;SDS011;33771;48.180;11.400;2023-12-28T07:35:16;5.10;;;1.93;;
48006;SDS011;33771;48.180;11.400;2023-12-28T07:37:42;3.73;;;1.77;;
48006;SDS011;33771;48.180;11.400;2023-12-28T07:40:09;5.40;;;2.00;;
48006;SDS011;33771;48.180;11.400;2023-12-28T07:42:36;5.60;;;2.20;;
48006;SDS011;33771;48.180;11.400;2023-12-28T07:45:01;4.73;;;1.90;;
48006;SDS011;33771;48.180;11.400;2023-12-28T07:47:27;3.00;;;1.73;;
48006;SDS011;33771;48.180;11.400;2023-12-28T07:49:54;3.83;;;1.77;;
48006;SDS011;33771;48.180;11.400;2023-12-28T07:52:20;3.17;;;1.80;;
48006;SDS011;33771;48.180;11.400;2023-12-28T07:54:45;5.27;;;1.83;;
48006;SDS011;33771;48.180;11.400;2023-12-28T07:57:11;3.07;;;1.60;;
48006;SDS011;33771;48.180;11.400;2023-12-28T07:59:36;2.53;;;1.60;;
48006;SDS011;33771;48.180;11.400;2023-12-28T08:02:02;4.70;;;1.80;;
48006;SDS011;33771;48.180;11.400;2023-12-28T08:04:27;3.87;;;1.60;;
48006;SDS011;33771;48.180;11.400;2023-12-28T08:06:53;4.10;;;1.90;;
48006;SDS011;33771;48.180;11.400;2023-12-28T08:09:18;2.57;;;1.53;;
48006;SDS011;33771;48.180;11.400;2023-12-28T08:11:44;3.63;;;1.80;;
48006;SDS011;33771;48.180;11.400;2023-12-28T08:14:10;4.37;;;1.63;;
48006;SDS011;33771;48.180;11.400;2023-12-28T08:16:35;2.90;;;1.50;;
48006;SDS011;33771;48.180;11.400;2023-12-28T08:19:01;2.90;;;1.60;;
48006;SDS011;33771;48.180;11.400;2023-12-28T08:21:27;2.00;;;1.20;;
48006;SDS011;33771;48.180;11.400;2023-12-28T08:23:52;2.60;;;1.20;;
48006;SDS011;33771;48.180;11.400;2023-12-28T08:26:18;3.30;;;1.40;;
48006;SDS011;33771;48.180;11.400;2023-12-28T08:28:44;2.80;;;1.40;;
48006;SDS011;33771;48.180;11.400;2023-12-28T08:31:10;3.13;;;1.53;;
48006;SDS011;33771;48.180;11.400;2023-12-28T08:33:35;4.80;;;1.60;;
48006;SDS011;33771;48.180;11.400;2023-12-28T08:36:04;2.63;;;1.40;;
48006;SDS011;33771;48.180;11.400;2023-12-28T08:38:30;2.67;;;1.40;;
48006;SDS011;33771;48.180;11.400;2023-12-28T08:40:56;4.13;;;1.63;;
48006;SDS011;33771;48.180;11.400;2023-12-28T08:43:21;2.83;;;1.40;;
48006;SDS011;33771;48.180;11.400;2023-12-28T08:45:47;2.23;;;1.47;;
48006;SDS011;33771;48.180;11.400;2023-12-28T08:48:13;3.67;;;1.37;;
48006;SDS011;33771;48.180;11.400;2023-12-28T08:50:38;5.00;;;1.50;;
48006;SDS011;33771;48.180;11.400;2023-12-28T08:53:04;2.53;;;1.50;;
48006;SDS011;33771;48.180;11.400;2023-12-28T08:55:29;1.80;;;1.20;;
48006;SDS011;33771;48.180;11.400;2023-12-28T08:57:55;3.43;;;1.50;;
48006;SDS011;33771;48.180;11.400;2023-12-28T09:00:20;3.57;;;1.87;;
48006;SDS011;33771;48.180;11.400;2023-12-28T09:02:46;4.47;;;1.90;;
48006;SDS011;33771;48.180;11.400;2023-12-28T09:05:11;7.30;;;2.10;;
48006;SDS011;33771;48.180;11.400;2023-12-28T09:07:37;2.90;;;1.60;;
48006;SDS011;33771;48.180;11.400;2023-12-28T09:10:08;2.00;;;1.27;;
48006;SDS011;33771;48.180;11.400;2023-12-28T09:12:35;2.80;;;1.50;;
48006;SDS011;33771;48.180;11.400;2023-12-28T09:15:00;2.10;;;1.20;;
48006;SDS011;33771;48.180;11.400;2023-12-28T09:17:26;1.77;;;1.30;;
48006;SDS011;33771;48.180;11.400;2023-12-28T09:19:51;1.97;;;1.30;;
48006;SDS011;33771;48.180;11.400;2023-12-28T09:22:17;2.07;;;1.37;;
48006;SDS011;33771;48.180;11.400;2023-12-28T09:24:42;5.23;;;1.57;;
48006;SDS011;33771;48.180;11.400;2023-12-28T09:27:08;4.80;;;1.47;;
48006;SDS011;33771;48.180;11.400;2023-12-28T09:29:34;6.30;;;1.70;;
48006;SDS011;33771;48.180;11.400;2023-12-28T09:32:00;2.53;;;1.30;;
48006;SDS011;33771;48.180;11.400;2023-12-28T09:34:25;3.17;;;1.27;;
48006;SDS011;33771;48.180;11.400;2023-12-28T09:36:51;2.70;;;1.30;;
48006;SDS011;33771;48.180;11.400;2023-12-28T09:39:16;2.73;;;1.40;;
48006;SDS011;33771;48.180;11.400;2023-12-28T09:41:43;2.10;;;1.30;;
48006;SDS011;33771;48.180;11.400;2023-12-28T09:44:17;2.88;;;1.30;;
48006;SDS011;33771;48.180;11.400;2023-12-28T09:46:44;3.47;;;1.20;;
48006;SDS011;33771;48.180;11.400;2023-12-28T09:49:11;2.20;;;1.30;;
48006;SDS011;33771;48.180;11.400;2023-12-28T09:51:36;2.40;;;1.23;;
48006;SDS011;33771;48.180;11.400;2023-12-28T09:54:03;1.90;;;1.20;;
48006;SDS011;33771;48.180;11.400;2023-12-28T09:56:29;2.77;;;1.53;;
48006;SDS011;33771;48.180;11.400;2023-12-28T09:58:55;1.80;;;1.30;;
48006;SDS011;33771;48.180;11.400;2023-12-28T10:01:22;2.00;;;1.33;;
48006;SDS011;33771;48.180;11.400;2023-12-28T10:03:48;4.43;;;1.33;;
48006;SDS011;33771;48.180;11.400;2023-12-28T10:06:13;2.00;;;1.30;;
48006;SDS011;33771;48.180;11.400;2023-12-28T10:08:47;3.23;;;1.40;;
48006;SDS011;33771;48.180;11.400;2023-12-28T10:11:17;2.50;;;1.47;;
48006;SDS011;33771;48.180;11.400;2023-12-28T10:13:43;2.13;;;1.13;;
48006;SDS011;33771;48.180;11.400;2023-12-28T10:16:10;2.40;;;1.20;;
48006;SDS011;33771;48.180;11.400;2023-12-28T10:18:41;3.37;;;1.20;;
48006;SDS011;33771;48.180;11.400;2023-12-28T10:21:07;4.57;;;1.23;;
48006;SDS011;33771;48.180;11.400;2023-12-28T10:23:33;1.93;;;1.17;;
48006;SDS011;33771;48.180;11.400;2023-12-28T10:25:59;2.17;;;1.10;;
48006;SDS011;33771;48.180;11.400;2023-12-28T10:28:26;2.87;;;1.43;;
48006;SDS011;33771;48.180;11.400;2023-12-28T10:30:55;3.17;;;1.33;;
48006;SDS011;33771;48.180;11.400;2023-12-28T10:33:23;2.00;;;1.10;;
48006;SDS011;33771;48.180;11.400;2023-12-28T10:35:51;2.13;;;1.20;;
48006;SDS011;33771;48.180;11.400;2023-12-28T10:38:19;3.23;;;1.43;;
48006;SDS011;33771;48.180;11.400;2023-12-28T10:40:45;4.13;;;1.97;;
48006;SDS011;33771;48.180;11.400;2023-12-28T10:43:15;2.03;;;1.33;;
48006;SDS011;33771;48.180;11.400;2023-12-28T10:45:41;2.60;;;1.20;;
48006;SDS011;33771;48.180;11.400;2023-12-28T10:48:11;1.87;;;1.30;;
48006;SDS011;33771;48.180;11.400;2023-12-28T10:50:39;9.00;;;1.53;;
48006;SDS011;33771;48.180;11.400;2023-12-28T10:53:11;2.30;;;1.23;;
48006;SDS011;33771;48.180;11.400;2023-12-28T10:56:00;5.57;;;1.83;;
48006;SDS011;33771;48.180;11.400;2023-12-28T10:58:48;1.70;;;1.10;;
48006;SDS011;33771;48.180;11.400;2023-12-28T11:01:15;2.33;;;1.37;;
48006;SDS011;33771;48.180;11.400;2023-12-28T11:03:48;2.33;;;1.38;;
48006;SDS011;33771;48.180;11.400;2023-12-28T11:06:22;1.90;;;1.20;;
48006;SDS011;33771;48.180;11.400;2023-12-28T11:08:51;2.10;;;1.30;;
48006;SDS011;33771;48.180;11.400;2023-12-28T11:11:19;2.67;;;1.30;;
48006;SDS011;33771;48.180;11.400;2023-12-28T11:13:46;3.27;;;1.13;;
48006;SDS011;33771;48.180;11.400;2023-12-28T11:16:13;4.70;;;1.20;;
48006;SDS011;33771;48.180;11.400;2023-12-28T11:18:39;2.60;;;1.23;;
48006;SDS011;33771;48.180;11.400;2023-12-28T11:21:05;3.07;;;1.50;;
48006;SDS011;33771;48.180;11.400;2023-12-28T11:23:31;2.70;;;1.50;;
48006;SDS011;33771;48.180;11.400;2023-12-28T11:25:57;2.40;;;1.30;;
48006;SDS011;33771;48.180;11.400;2023-12-28T11:28:23;3.07;;;1.40;;
48006;SDS011;33771;48.180;11.400;2023-12-28T11:30:49;3.07;;;1.60;;
48006;SDS011;33771;48.180;11.400;2023-12-28T11:33:17;2.50;;;1.50;;
48006;SDS011;33771;48.180;11.400;2023-12-28T11:35:43;3.10;;;1.43;;
48006;SDS011;33771;48.180;11.400;2023-12-28T11:38:09;2.50;;;1.40;;
48006;SDS011;33771;48.180;11.400;2023-12-28T11:40:39;2.63;;;1.60;;
48006;SDS011;33771;48.180;11.400;2023-12-28T11:43:15;3.13;;;1.50;;
48006;SDS011;33771;48.180;11.400;2023-12-28T11:45:50;5.10;;;2.80;;
48006;SDS011;33771;48.180;11.400;2023-12-28T11:48:23;3.13;;;1.50;;
48006;SDS011;33771;48.180;11.400;2023-12-28T11:50:52;1.70;;;1.00;;
48006;SDS011;33771;48.180;11.400;2023-12-28T11:53:21;1.77;;;1.10;;
48006;SDS011;33771;48.180;11.400;2023-12-28T11:55:47;2.70;;;1.47;;
48006;SDS011;33771;48.180;11.400;2023-12-28T11:58:12;1.80;;;1.20;;
48006;SDS011;33771;48.180;11.400;2023-12-28T12:00:39;3.97;;;1.23;;
48006;SDS011;33771;48.180;11.400;2023-12-28T12:03:05;4.50;;;1.30;;
48006;SDS011;33771;48.180;11.400;2023-12-28T12:05:31;1.63;;;1.07;;
48006;SDS011;33771;48.180;11.400;2023-12-28T12:07:56;2.23;;;1.20;;
48006;SDS011;33771;48.180;11.400;2023-12-28T12:10:22;3.03;;;1.60;;
48006;SDS011;33771;48.180;11.400;2023-12-28T12:12:50;9.38;;;1.40;;
48006;SDS011;33771;48.180;11.400;2023-12-28T12:15:17;3.50;;;1.20;;
48006;SDS011;33771;48.180;11.400;2023-12-28T12:17:43;4.00;;;1.50;;
48006;SDS011;33771;48.180;11.400;2023-12-28T12:20:09;3.10;;;1.20;;
48006;SDS011;33771;48.180;11.400;2023-12-28T12:22:35;2.67;;;1.30;;
48006;SDS011;33771;48.180;11.400;2023-12-28T12:25:02;2.70;;;1.37;;
48006;SDS011;33771;48.180;11.400;2023-12-28T12:27:30;2.23;;;1.30;;
48006;SDS011;33771;48.180;11.400;2023-12-28T12:29:56;2.03;;;1.30;;
48006;SDS011;33771;48.180;11.400;2023-12-28T12:32:21;1.60;;;1.20;;
48006;SDS011;33771;48.180;11.400;2023-12-28T12:34:47;3.10;;;1.20;;
48006;SDS011;33771;48.180;11.400;2023-12-28T12:37:13;1.90;;;1.20;;
48006;SDS011;33771;48.180;11.400;2023-12-28T12:39:39;3.57;;;1.50;;
48006;SDS011;33771;48.180;11.400;2023-12-28T12:42:05;4.70;;;1.27;;
48006;SDS011;33771;48.180;11.400;2023-12-28T12:44:31;4.43;;;1.47;;
48006;SDS011;33771;48.180;11.400;2023-12-28T12:46:58;2.97;;;1.30;;
48006;SDS011;33771;48.180;11.400;2023-12-28T12:49:24;3.00;;;1.53;;
48006;SDS011;33771;48.180;11.400;2023-12-28T12:51:50;2.37;;;1.37;;
48006;SDS011;33771;48.180;11.400;2023-12-28T12:54:16;4.23;;;2.60;;
48006;SDS011;33771;48.180;11.400;2023-12-28T12:56:45;4.17;;;1.43;;
48006;SDS011;33771;48.180;11.400;2023-12-28T12:59:11;1.90;;;1.27;;
48006;SDS011;33771;48.180;11.400;2023-12-28T13:01:42;5.57;;;1.57;;
48006;SDS011;33771;48.180;11.400;2023-12-28T13:04:08;2.70;;;1.33;;
48006;SDS011;33771;48.180;11.400;2023-12-28T13:06:34;2.30;;;1.23;;
48006;SDS011;33771;48.180;11.400;2023-12-28T13:08:59;2.80;;;1.50;;
48006;SDS011;33771;48.180;11.400;2023-12-28T13:11:25;3.50;;;1.60;;
48006;SDS011;33771;48.180;11.400;2023-12-28T13:13:54;2.87;;;1.60;;
48006;SDS011;33771;48.180;11.400;2023-12-28T13:16:19;2.03;;;1.30;;
48006;SDS011;33771;48.180;11.400;2023-12-28T13:18:45;4.23;;;1.63;;
48006;SDS011;33771;48.180;11.400;2023-12-28T13:21:10;4.07;;;2.47;;
48006;SDS011;33771;48.180;11.400;2023-12-28T13:23:37;2.97;;;1.53;;
48006;SDS011;33771;48.180;11.400;2023-12-28T13:26:03;4.20;;;1.70;;
48006;SDS011;33771;48.180;11.400;2023-12-28T13:28:28;3.43;;;1.57;;
48006;SDS011;33771;48.180;11.400;2023-12-28T13:30:54;3.90;;;1.67;;
48006;SDS011;33771;48.180;11.400;2023-12-28T13:33:21;2.63;;;1.40;;
48006;SDS011;33771;48.180;11.400;2023-12-28T13:35:47;2.97;;;1.77;;
48006;SDS011;33771;48.180;11.400;2023-12-28T13:38:12;2.40;;;1.43;;
48006;SDS011;33771;48.180;11.400;2023-12-28T13:40:38;4.87;;;1.87;;
48006;SDS011;33771;48.180;11.400;2023-12-28T13:43:03;4.63;;;1.87;;
48006;SDS011;33771;48.180;11.400;2023-12-28T13:45:29;2.87;;;1.50;;
48006;SDS011;33771;48.180;11.400;2023-12-28T13:47:54;7.00;;;1.97;;
48006;SDS011;33771;48.180;11.400;2023-12-28T13:50:20;3.07;;;1.50;;
48006;SDS011;33771;48.180;11.400;2023-12-28T13:52:46;5.33;;;2.00;;
48006;SDS011;33771;48.180;11.400;2023-12-28T13:55:11;3.30;;;1.90;;
48006;SDS011;33771;48.180;11.400;2023-12-28T13:57:37;2.87;;;1.83;;
48006;SDS011;33771;48.180;11.400;2023-12-28T14:00:03;2.90;;;1.90;;
48006;SDS011;33771;48.180;11.400;2023-12-28T14:02:30;7.93;;;2.10;;
48006;SDS011;33771;48.180;11.400;2023-12-28T14:04:56;3.10;;;1.70;;
48006;SDS011;33771;48.180;11.400;2023-12-28T14:07:24;2.10;;;1.40;;
48006;SDS011;33771;48.180;11.400;2023-12-28T14:09:50;2.57;;;1.50;;
48006;SDS011;33771;48.180;11.400;2023-12-28T14:12:16;2.77;;;1.63;;
48006;SDS011;33771;48.180;11.400;2023-12-28T14:14:41;2.93;;;1.50;;
48006;SDS011;33771;48.180;11.400;2023-12-28T14:17:07;4.87;;;1.50;;
48006;SDS011;33771;48.180;11.400;2023-12-28T14:19:32;4.73;;;1.80;;
48006;SDS011;33771;48.180;11.400;2023-12-28T14:21:58;4.07;;;1.80;;
48006;SDS011;33771;48.180;11.400;2023-12-28T14:24:24;12.13;;;2.97;;
48006;SDS011;33771;48.180;11.400;2023-12-28T14:26:52;5.73;;;2.30;;
48006;SDS011;33771;48.180;11.400;2023-12-28T14:29:19;6.67;;;2.20;;